| time (UTC) | temp F | wind direction | speed knots | gust knots | rain 1hr in | rain 24hr in | rain mn in | humidity % | barometer mb |
| 20260505203403 | 69 | 0.0 | 0.0 | 0.00 | 0.00 | 0.00 | 51 | 1005.9 | |
| 20260505202357 | 71 | 0.0 | 0.0 | 0.00 | 0.00 | 0.00 | 50 | 1006.7 | |
| 20260505201352 | 72 | 0.0 | 0.0 | 0.00 | 0.00 | 0.00 | 49 | 1006.2 | |
| 20260505200347 | 72 | 0.0 | 0.0 | 0.00 | 0.00 | 0.00 | 49 | 1006.1 | |
| 20260505195341 | 71 | 0.0 | 0.0 | 0.00 | 0.00 | 0.00 | 49 | 1005.9 | |
| 20260505194336 | 71 | 0.0 | 0.0 | 0.00 | 0.00 | 0.00 | 48 | 1005.0 | |
| 20260505193331 | 72 | 0.0 | 0.0 | 0.00 | 0.00 | 0.00 | 48 | 1005.7 | |
| 20260505192325 | 72 | 0.0 | 0.0 | 0.00 | 0.00 | 0.00 | 48 | 1005.9 | |
| 20260505191320 | 72 | 0.0 | 0.0 | 0.00 | 0.00 | 0.00 | 48 | 1005.7 | |
| 20260505190315 | 72 | 0.0 | 0.0 | 0.00 | 0.00 | 0.00 | 48 | 1004.8 | |
| 20260505185309 | 73 | 0.0 | 0.0 | 0.00 | 0.00 | 0.00 | 48 | 1005.5 | |
| 20260505184304 | 73 | 0.0 | 0.0 | 0.00 | 0.00 | 0.00 | 47 | 1005.5 | |
| 20260505183259 | 73 | 0.0 | 0.0 | 0.00 | 0.00 | 0.00 | 47 | 1005.5 | |
| 20260505182253 | 74 | 0.0 | 0.0 | 0.00 | 0.00 | 0.00 | 47 | 1005.3 | |
| 20260505181248 | 74 | 0.0 | 0.0 | 0.00 | 0.00 | 0.00 | 46 | 1005.2 | |
| 20260505180243 | 75 | 0.0 | 0.0 | 0.00 | 0.00 | 0.00 | 46 | 1005.1 | |
| 20260505175237 | 74 | 0.0 | 0.0 | 0.00 | 0.00 | 0.00 | 46 | 1004.5 | |
| 20260505174232 | 76 | 0.0 | 0.0 | 0.00 | 0.00 | 0.00 | 45 | 1005.4 | |
| 20260505173227 | 76 | 0.0 | 0.0 | 0.00 | 0.00 | 0.00 | 45 | 1005.2 | |
| 20260505172221 | 76 | 0.0 | 0.0 | 0.00 | 0.00 | 0.00 | 45 | 1004.4 | |
| 20260505171216 | 77 | 0.0 | 0.0 | 0.00 | 0.00 | 0.00 | 44 | 1005.1 | |
| 20260505170211 | 78 | 0.0 | 0.0 | 0.00 | 0.00 | 0.00 | 44 | 1005.3 | |
| 20260505165205 | 78 | 0.0 | 0.0 | 0.00 | 0.00 | 0.00 | 44 | 1005.3 | |
| 20260505164200 | 78 | 0.0 | 0.0 | 0.00 | 0.00 | 0.00 | 43 | 1005.5 | |
| 20260505163155 | 78 | 0.0 | 0.0 | 0.00 | 0.00 | 0.00 | 43 | 1005.4 | |
| 20260505162149 | 78 | 0.0 | 0.0 | 0.00 | 0.00 | 0.00 | 43 | 1005.4 | |
| 20260505161144 | 78 | 0.0 | 0.0 | 0.00 | 0.00 | 0.00 | 42 | 1004.8 | |
| 20260505160139 | 79 | 0.0 | 0.0 | 0.00 | 0.00 | 0.00 | 42 | 1005.5 | |
| 20260505153123 | 79 | 0.0 | 0.0 | 0.00 | 0.00 | 0.00 | 41 | 1005.7 | |
| 20260505152117 | 79 | 0.0 | 0.0 | 0.00 | 0.00 | 0.00 | 40 | 1005.0 | |
| 20260505151112 | 80 | 0.0 | 0.0 | 0.00 | 0.00 | 0.00 | 40 | 1004.9 | |
| 20260505150107 | 80 | 0.0 | 0.0 | 0.00 | 0.00 | 0.00 | 39 | 1005.7 | |
| 20260505124957 | 81 | 0.0 | 0.0 | 0.00 | 0.00 | 0.00 | 35 | 1006.6 | |
| 20260505123952 | 81 | 0.0 | 0.0 | 0.00 | 0.00 | 0.00 | 37 | 1006.9 | |
| 20260505122946 | 81 | 0.0 | 0.0 | 0.00 | 0.00 | 0.00 | 36 | 1007.2 | |
| 20260505121941 | 81 | 0.0 | 0.0 | 0.00 | 0.00 | 0.00 | 38 | 1007.4 | |
| 20260505120936 | 80 | 0.0 | 0.0 | 0.00 | 0.00 | 0.00 | 38 | 1007.3 | |
| 20260505115930 | 79 | 0.0 | 0.0 | 0.00 | 0.00 | 0.00 | 41 | 1007.7 | |
| 20260505114925 | 78 | 0.0 | 0.0 | 0.00 | 0.00 | 0.00 | 41 | 1007.1 | |
| 20260505113919 | 78 | 0.0 | 0.0 | 0.00 | 0.00 | 0.00 | 44 | 1008.1 | |
| 20260505112914 | 77 | 0.0 | 0.0 | 0.00 | 0.00 | 0.00 | 46 | 1007.6 | |
| 20260505111909 | 77 | 0.0 | 0.0 | 0.00 | 0.00 | 0.00 | 48 | 1008.5 | |
| 20260505110903 | 75 | 0.0 | 0.0 | 0.00 | 0.00 | 0.00 | 46 | 1008.0 | |
| 20260505101837 | 74 | 0.0 | 0.0 | 0.00 | 0.00 | 0.00 | 47 | 1009.6 | |
| 20260505100831 | 73 | 0.0 | 0.0 | 0.00 | 0.00 | 0.00 | 47 | 1009.0 | |
| 20260505095826 | 73 | 0.0 | 0.0 | 0.00 | 0.00 | 0.00 | 48 | 1009.9 | |
| 20260505094821 | 73 | 0.0 | 0.0 | 0.00 | 0.00 | 0.00 | 48 | 1010.2 | |
| 20260505093815 | 73 | 0.0 | 0.0 | 0.00 | 0.00 | 0.00 | 49 | 1010.1 | |
| 20260505092810 | 73 | 0.0 | 0.0 | 0.00 | 0.00 | 0.00 | 49 | 1010.1 | |
| 20260505091805 | 72 | 0.0 | 0.0 | 0.00 | 0.00 | 0.00 | 49 | 1009.6 | |
| 20260505090759 | 72 | 0.0 | 0.0 | 0.00 | 0.00 | 0.00 | 50 | 1010.4 | |
| 20260505085754 | 72 | 0.0 | 0.0 | 0.00 | 0.00 | 0.00 | 52 | 1010.5 | |
| 20260505084749 | 70 | 0.0 | 0.0 | 0.00 | 0.00 | 0.00 | 53 | 1009.8 | |
| 20260505083743 | 70 | 0.0 | 0.0 | 0.00 | 0.00 | 0.00 | 55 | 1009.9 | |
| 20260505082738 | 71 | 0.0 | 0.0 | 0.00 | 0.00 | 0.00 | 55 | 1010.9 | |
| 20260505081733 | 70 | 0.0 | 0.0 | 0.00 | 0.00 | 0.00 | 55 | 1011.0 | |
| 20260505080727 | 69 | 0.0 | 0.0 | 0.00 | 0.00 | 0.00 | 55 | 1010.9 | |
| 20260505075722 | 69 | 0.0 | 0.0 | 0.00 | 0.00 | 0.00 | 54 | 1010.2 | |
| 20260505074717 | 69 | 0.0 | 0.0 | 0.00 | 0.00 | 0.00 | 54 | 1011.1 | |
| 20260505073711 | 68 | 0.0 | 0.0 | 0.00 | 0.00 | 0.00 | 54 | 1011.3 | |
| 20260505072706 | 68 | 0.0 | 0.0 | 0.00 | 0.00 | 0.00 | 54 | 1011.4 | |
| 20260505071701 | 67 | 0.0 | 0.0 | 0.00 | 0.00 | 0.00 | 54 | 1011.3 | |
| 20260505070655 | 66 | 0.0 | 0.0 | 0.00 | 0.00 | 0.00 | 55 | 1010.6 | |
| 20260505065650 | 67 | 0.0 | 0.0 | 0.00 | 0.00 | 0.00 | 56 | 1011.5 | |
| 20260505064645 | 66 | 0.0 | 0.0 | 0.00 | 0.00 | 0.00 | 57 | 1010.6 | |
| 20260505063639 | 66 | 0.0 | 0.0 | 0.00 | 0.00 | 0.00 | 60 | 1011.4 | |
| 20260505062634 | 64 | 0.0 | 0.0 | 0.00 | 0.00 | 0.00 | 60 | 1010.7 | |
| 20260505061629 | 64 | 0.0 | 0.0 | 0.00 | 0.00 | 0.00 | 61 | 1011.5 | |
| 20260505060623 | 64 | 0.0 | 0.0 | 0.00 | 0.00 | 0.00 | 60 | 1011.7 | |
| 20260505055618 | 63 | 0.0 | 0.0 | 0.00 | 0.00 | 0.00 | 60 | 1010.6 | |
| 20260505054612 | 64 | 0.0 | 0.0 | 0.00 | 0.00 | 0.00 | 60 | 1011.6 | |
| 20260505053607 | 63 | 0.0 | 0.0 | 0.00 | 0.00 | 0.00 | 62 | 1011.7 | |
| 20260505052602 | 62 | 0.0 | 0.0 | 0.00 | 0.00 | 0.00 | 61 | 1011.6 | |
| 20260505051557 | 62 | 0.0 | 0.0 | 0.00 | 0.00 | 0.00 | 61 | 1011.4 | |
| 20260505050551 | 62 | 0.0 | 0.0 | 0.00 | 0.00 | 0.00 | 61 | 1011.5 | |
| 20260505041524 | 59 | 0.0 | 0.0 | 0.00 | 0.00 | 0.00 | 61 | 1011.1 | |
| 20260505040519 | 58 | 0.0 | 0.0 | 0.00 | 0.00 | 0.00 | 60 | 1011.2 | |
| 20260505035514 | 57 | 0.0 | 0.0 | 0.00 | 0.00 | 0.00 | 58 | 1010.3 | |
| 20260505034509 | 59 | 0.0 | 0.0 | 0.00 | 0.00 | 0.00 | 59 | 1011.4 | |
| 20260505033503 | 58 | 0.0 | 0.0 | 0.00 | 0.00 | 0.00 | 59 | 1010.2 | |
| 20260505032458 | 59 | 0.0 | 0.0 | 0.00 | 0.00 | 0.00 | 59 | 1011.4 | |
| 20260505031452 | 60 | 0.0 | 0.0 | 0.00 | 0.00 | 0.00 | 58 | 1011.4 | |
| 20260505030447 | 59 | 0.0 | 0.0 | 0.00 | 0.00 | 0.00 | 59 | 1011.2 | |
| 20260505025442 | 59 | 0.0 | 0.0 | 0.00 | 0.00 | 0.00 | 58 | 1010.4 | |
| 20260505024436 | 60 | 0.0 | 0.0 | 0.00 | 0.00 | 0.00 | 57 | 1011.5 | |
| 20260505023431 | 61 | 0.0 | 0.0 | 0.00 | 0.00 | 0.00 | 56 | 1011.3 | |
| 20260505022426 | 62 | 0.0 | 0.0 | 0.00 | 0.00 | 0.00 | 56 | 1011.5 | |
| 20260505021420 | 61 | 0.0 | 0.0 | 0.00 | 0.00 | 0.00 | 57 | 1011.4 | |
| 20260505020415 | 62 | 0.0 | 0.0 | 0.00 | 0.00 | 0.00 | 57 | 1011.4 | |
| 20260505015410 | 61 | 0.0 | 0.0 | 0.00 | 0.00 | 0.00 | 57 | 1011.7 | |
| 20260505014404 | 62 | 0.0 | 0.0 | 0.00 | 0.00 | 0.00 | 56 | 1010.9 | |
| 20260505013359 | 63 | 0.0 | 0.0 | 0.00 | 0.00 | 0.00 | 54 | 1011.9 | |
| 20260505012354 | 64 | 0.0 | 0.0 | 0.00 | 0.00 | 0.00 | 55 | 1011.8 | |
| 20260505011348 | 63 | 0.0 | 0.0 | 0.00 | 0.00 | 0.00 | 55 | 1010.9 | |
| 20260505010343 | 63 | 0.0 | 0.0 | 0.00 | 0.00 | 0.00 | 55 | 1011.7 | |
| 20260505005338 | 63 | 0.0 | 0.0 | 0.00 | 0.00 | 0.00 | 53 | 1010.8 | |
| 20260505004332 | 64 | 0.0 | 0.0 | 0.00 | 0.00 | 0.00 | 55 | 1011.9 | |
| 20260505003327 | 62 | 0.0 | 0.0 | 0.00 | 0.00 | 0.00 | 55 | 1010.8 | |
| 20260505002322 | 64 | 0.0 | 0.0 | 0.00 | 0.00 | 0.00 | 54 | 1010.8 | |
| 20260505001316 | 64 | 0.0 | 0.0 | 0.00 | 0.00 | 0.00 | 55 | 1011.7 | |
| 20260505000311 | 64 | 0.0 | 0.0 | 0.00 | 0.00 | 0.00 | 53 | 1011.7 | |
| 20260504235306 | 65 | 0.0 | 0.0 | 0.00 | 0.00 | 0.00 | 52 | 1011.6 | |
| 20260504234300 | 65 | 0.0 | 0.0 | 0.00 | 0.00 | 0.00 | 52 | 1011.7 | |
| 20260504233255 | 66 | 0.0 | 0.0 | 0.00 | 0.00 | 0.00 | 50 | 1011.7 | |
| 20260504232250 | 67 | 0.0 | 0.0 | 0.00 | 0.00 | 0.00 | 50 | 1011.7 | |
| 20260504231244 | 66 | 0.0 | 0.0 | 0.00 | 0.00 | 0.00 | 50 | 1010.9 | |
| 20260504230239 | 68 | 0.0 | 0.0 | 0.00 | 0.00 | 0.00 | 49 | 1011.8 | |
| 20260504225233 | 69 | 0.0 | 0.0 | 0.00 | 0.00 | 0.00 | 47 | 1011.8 | |
| 20260504224228 | 70 | 0.0 | 0.0 | 0.00 | 0.00 | 0.00 | 47 | 1012.0 | |
| 20260504223223 | 70 | 0.0 | 0.0 | 0.00 | 0.00 | 0.00 | 47 | 1011.8 | |
| 20260504222217 | 71 | 0.0 | 0.0 | 0.00 | 0.00 | 0.00 | 46 | 1011.9 | |
| 20260504221212 | 72 | 0.0 | 0.0 | 0.00 | 0.00 | 0.00 | 45 | 1012.0 | |
| 20260504220207 | 72 | 0.0 | 0.0 | 0.00 | 0.00 | 0.00 | 45 | 1011.9 | |
| 20260504215201 | 72 | 0.0 | 0.0 | 0.00 | 0.00 | 0.00 | 45 | 1012.0 | |
| 20260504214156 | 72 | 0.0 | 0.0 | 0.00 | 0.00 | 0.00 | 45 | 1011.1 | |
| 20260504213151 | 72 | 0.0 | 0.0 | 0.00 | 0.00 | 0.00 | 44 | 1011.1 | |
| 20260504212145 | 73 | 0.0 | 0.0 | 0.00 | 0.00 | 0.00 | 43 | 1011.9 | |
| 20260504211140 | 73 | 0.0 | 0.0 | 0.00 | 0.00 | 0.00 | 43 | 1011.9 | |
| 20260504210135 | 74 | 0.0 | 0.0 | 0.00 | 0.00 | 0.00 | 43 | 1012.1 | |
| 20260504205129 | 74 | 0.0 | 0.0 | 0.00 | 0.00 | 0.00 | 43 | 1012.0 | |
| 20260504204124 | 73 | 0.0 | 0.0 | 0.00 | 0.00 | 0.00 | 42 | 1011.2 |